sensor_id;sensor_type;location;lat;lon;timestamp;P1;durP1;ratioP1;P2;durP2;ratioP2
4794;SDS011;2411;47.060;15.064;2023-08-12T00:02:17;4.20;;;3.67;;
4794;SDS011;2411;47.060;15.064;2023-08-12T00:04:45;7.53;;;3.13;;
4794;SDS011;2411;47.060;15.064;2023-08-12T00:07:14;4.23;;;3.80;;
4794;SDS011;2411;47.060;15.064;2023-08-12T00:09:42;2.83;;;2.50;;
4794;SDS011;2411;47.060;15.064;2023-08-12T00:12:09;2.90;;;2.70;;
4794;SDS011;2411;47.060;15.064;2023-08-12T00:14:36;3.60;;;3.00;;
4794;SDS011;2411;47.060;15.064;2023-08-12T00:17:04;3.30;;;3.10;;
4794;SDS011;2411;47.060;15.064;2023-08-12T00:19:31;4.17;;;3.80;;
4794;SDS011;2411;47.060;15.064;2023-08-12T00:21:58;3.60;;;3.40;;
4794;SDS011;2411;47.060;15.064;2023-08-12T00:24:26;5.53;;;3.20;;
4794;SDS011;2411;47.060;15.064;2023-08-12T00:26:53;3.33;;;3.03;;
4794;SDS011;2411;47.060;15.064;2023-08-12T00:29:20;4.13;;;3.73;;
4794;SDS011;2411;47.060;15.064;2023-08-12T00:31:48;3.20;;;2.87;;
4794;SDS011;2411;47.060;15.064;2023-08-12T00:34:16;3.03;;;2.90;;
4794;SDS011;2411;47.060;15.064;2023-08-12T00:36:44;5.17;;;3.20;;
4794;SDS011;2411;47.060;15.064;2023-08-12T00:39:11;2.67;;;2.47;;
4794;SDS011;2411;47.060;15.064;2023-08-12T00:41:39;3.60;;;2.70;;
4794;SDS011;2411;47.060;15.064;2023-08-12T00:44:06;3.13;;;2.93;;
4794;SDS011;2411;47.060;15.064;2023-08-12T00:46:33;3.80;;;3.50;;
4794;SDS011;2411;47.060;15.064;2023-08-12T00:49:02;3.60;;;3.30;;
4794;SDS011;2411;47.060;15.064;2023-08-12T00:51:30;3.63;;;2.93;;
4794;SDS011;2411;47.060;15.064;2023-08-12T00:53:58;2.73;;;2.63;;
4794;SDS011;2411;47.060;15.064;2023-08-12T00:56:26;3.23;;;3.03;;
4794;SDS011;2411;47.060;15.064;2023-08-12T00:58:54;2.60;;;2.50;;
4794;SDS011;2411;47.060;15.064;2023-08-12T01:01:21;2.97;;;2.70;;
4794;SDS011;2411;47.060;15.064;2023-08-12T01:03:49;3.13;;;2.93;;
4794;SDS011;2411;47.060;15.064;2023-08-12T01:06:18;3.10;;;2.90;;
4794;SDS011;2411;47.060;15.064;2023-08-12T01:08:46;2.93;;;2.73;;
4794;SDS011;2411;47.060;15.064;2023-08-12T01:11:20;2.97;;;2.73;;
4794;SDS011;2411;47.060;15.064;2023-08-12T01:14:18;3.93;;;3.73;;
4794;SDS011;2411;47.060;15.064;2023-08-12T01:16:57;4.30;;;3.20;;
4794;SDS011;2411;47.060;15.064;2023-08-12T01:19:36;4.10;;;3.70;;
4794;SDS011;2411;47.060;15.064;2023-08-12T01:22:09;3.53;;;3.23;;
4794;SDS011;2411;47.060;15.064;2023-08-12T01:24:38;4.20;;;3.47;;
4794;SDS011;2411;47.060;15.064;2023-08-12T01:27:10;3.57;;;3.37;;
4794;SDS011;2411;47.060;15.064;2023-08-12T01:29:40;4.00;;;3.70;;
4794;SDS011;2411;47.060;15.064;2023-08-12T01:37:44;5.30;;;3.17;;
4794;SDS011;2411;47.060;15.064;2023-08-12T01:40:13;3.50;;;3.30;;
4794;SDS011;2411;47.060;15.064;2023-08-12T01:42:41;2.67;;;2.50;;
4794;SDS011;2411;47.060;15.064;2023-08-12T01:45:09;3.03;;;2.87;;
4794;SDS011;2411;47.060;15.064;2023-08-12T01:47:37;3.40;;;3.17;;
4794;SDS011;2411;47.060;15.064;2023-08-12T01:50:05;3.07;;;2.87;;
4794;SDS011;2411;47.060;15.064;2023-08-12T01:52:33;3.60;;;3.00;;
4794;SDS011;2411;47.060;15.064;2023-08-12T01:55:00;9.17;;;2.80;;
4794;SDS011;2411;47.060;15.064;2023-08-12T01:57:27;3.23;;;2.93;;
4794;SDS011;2411;47.060;15.064;2023-08-12T01:59:55;2.60;;;2.50;;
4794;SDS011;2411;47.060;15.064;2023-08-12T02:02:22;4.30;;;3.57;;
4794;SDS011;2411;47.060;15.064;2023-08-12T02:04:49;3.57;;;3.30;;
4794;SDS011;2411;47.060;15.064;2023-08-12T02:07:17;3.70;;;3.40;;
4794;SDS011;2411;47.060;15.064;2023-08-12T02:09:44;4.80;;;3.77;;
4794;SDS011;2411;47.060;15.064;2023-08-12T02:12:12;3.43;;;3.07;;
4794;SDS011;2411;47.060;15.064;2023-08-12T02:14:39;6.03;;;3.33;;
4794;SDS011;2411;47.060;15.064;2023-08-12T02:17:06;3.30;;;3.10;;
4794;SDS011;2411;47.060;15.064;2023-08-12T02:19:34;3.43;;;3.17;;
4794;SDS011;2411;47.060;15.064;2023-08-12T02:22:02;2.97;;;2.77;;
4794;SDS011;2411;47.060;15.064;2023-08-12T02:24:30;3.40;;;3.20;;
4794;SDS011;2411;47.060;15.064;2023-08-12T02:26:57;3.30;;;3.10;;
4794;SDS011;2411;47.060;15.064;2023-08-12T02:29:25;3.50;;;3.20;;
4794;SDS011;2411;47.060;15.064;2023-08-12T02:31:52;3.80;;;3.50;;
4794;SDS011;2411;47.060;15.064;2023-08-12T02:34:19;3.37;;;3.17;;
4794;SDS011;2411;47.060;15.064;2023-08-12T02:36:47;3.10;;;2.90;;
4794;SDS011;2411;47.060;15.064;2023-08-12T02:39:14;2.73;;;2.63;;
4794;SDS011;2411;47.060;15.064;2023-08-12T02:41:42;6.43;;;3.07;;
4794;SDS011;2411;47.060;15.064;2023-08-12T02:44:10;2.60;;;2.50;;
4794;SDS011;2411;47.060;15.064;2023-08-12T02:46:37;3.23;;;2.77;;
4794;SDS011;2411;47.060;15.064;2023-08-12T02:49:04;3.40;;;3.10;;
4794;SDS011;2411;47.060;15.064;2023-08-12T02:51:32;3.20;;;3.00;;
4794;SDS011;2411;47.060;15.064;2023-08-12T02:53:59;3.40;;;3.10;;
4794;SDS011;2411;47.060;15.064;2023-08-12T02:56:26;3.73;;;3.43;;
4794;SDS011;2411;47.060;15.064;2023-08-12T02:58:55;3.53;;;3.33;;
4794;SDS011;2411;47.060;15.064;2023-08-12T03:01:22;4.07;;;3.77;;
4794;SDS011;2411;47.060;15.064;2023-08-12T03:03:50;6.10;;;3.30;;
4794;SDS011;2411;47.060;15.064;2023-08-12T03:06:17;3.17;;;2.97;;
4794;SDS011;2411;47.060;15.064;2023-08-12T03:08:44;3.40;;;3.20;;
4794;SDS011;2411;47.060;15.064;2023-08-12T03:11:12;3.43;;;3.23;;
4794;SDS011;2411;47.060;15.064;2023-08-12T03:13:39;5.00;;;3.70;;
4794;SDS011;2411;47.060;15.064;2023-08-12T03:16:10;4.47;;;3.60;;
4794;SDS011;2411;47.060;15.064;2023-08-12T03:18:40;2.90;;;2.70;;
4794;SDS011;2411;47.060;15.064;2023-08-12T03:21:08;9.00;;;3.53;;
4794;SDS011;2411;47.060;15.064;2023-08-12T03:23:36;5.60;;;3.43;;
4794;SDS011;2411;47.060;15.064;2023-08-12T03:26:04;4.73;;;3.27;;
4794;SDS011;2411;47.060;15.064;2023-08-12T03:28:31;3.27;;;3.07;;
4794;SDS011;2411;47.060;15.064;2023-08-12T03:30:58;2.53;;;2.43;;
4794;SDS011;2411;47.060;15.064;2023-08-12T03:33:26;3.10;;;2.90;;
4794;SDS011;2411;47.060;15.064;2023-08-12T03:35:54;3.17;;;2.90;;
4794;SDS011;2411;47.060;15.064;2023-08-12T03:38:21;3.17;;;2.97;;
4794;SDS011;2411;47.060;15.064;2023-08-12T03:40:48;3.77;;;3.47;;
4794;SDS011;2411;47.060;15.064;2023-08-12T03:43:16;3.57;;;3.37;;
4794;SDS011;2411;47.060;15.064;2023-08-12T03:45:44;3.47;;;3.27;;
4794;SDS011;2411;47.060;15.064;2023-08-12T03:48:12;3.33;;;3.13;;
4794;SDS011;2411;47.060;15.064;2023-08-12T03:50:40;3.83;;;3.60;;
4794;SDS011;2411;47.060;15.064;2023-08-12T03:53:08;4.47;;;2.57;;
4794;SDS011;2411;47.060;15.064;2023-08-12T03:55:36;3.13;;;2.93;;
4794;SDS011;2411;47.060;15.064;2023-08-12T03:58:03;3.57;;;3.30;;
4794;SDS011;2411;47.060;15.064;2023-08-12T04:00:31;3.13;;;2.93;;
4794;SDS011;2411;47.060;15.064;2023-08-12T04:02:58;3.93;;;3.43;;
4794;SDS011;2411;47.060;15.064;2023-08-12T04:05:26;4.27;;;3.40;;
4794;SDS011;2411;47.060;15.064;2023-08-12T04:07:53;3.10;;;2.90;;
4794;SDS011;2411;47.060;15.064;2023-08-12T04:10:20;3.90;;;2.90;;
4794;SDS011;2411;47.060;15.064;2023-08-12T04:12:48;3.20;;;3.00;;
4794;SDS011;2411;47.060;15.064;2023-08-12T04:15:15;2.60;;;2.40;;
4794;SDS011;2411;47.060;15.064;2023-08-12T04:17:43;3.30;;;3.00;;
4794;SDS011;2411;47.060;15.064;2023-08-12T04:20:10;3.00;;;2.80;;
4794;SDS011;2411;47.060;15.064;2023-08-12T04:22:38;3.20;;;3.00;;
4794;SDS011;2411;47.060;15.064;2023-08-12T04:25:05;8.00;;;3.00;;
4794;SDS011;2411;47.060;15.064;2023-08-12T04:27:33;3.37;;;3.17;;
4794;SDS011;2411;47.060;15.064;2023-08-12T04:30:01;3.07;;;2.80;;
4794;SDS011;2411;47.060;15.064;2023-08-12T04:32:28;3.20;;;3.00;;
4794;SDS011;2411;47.060;15.064;2023-08-12T04:34:55;4.07;;;2.87;;
4794;SDS011;2411;47.060;15.064;2023-08-12T04:37:23;3.70;;;3.40;;
4794;SDS011;2411;47.060;15.064;2023-08-12T04:39:50;3.17;;;2.90;;
4794;SDS011;2411;47.060;15.064;2023-08-12T04:42:18;3.87;;;3.57;;
4794;SDS011;2411;47.060;15.064;2023-08-12T04:44:45;2.90;;;2.33;;
4794;SDS011;2411;47.060;15.064;2023-08-12T04:47:13;2.97;;;2.77;;
4794;SDS011;2411;47.060;15.064;2023-08-12T04:49:40;3.20;;;3.00;;
4794;SDS011;2411;47.060;15.064;2023-08-12T04:52:07;3.23;;;2.97;;
4794;SDS011;2411;47.060;15.064;2023-08-12T04:54:35;2.63;;;2.53;;
4794;SDS011;2411;47.060;15.064;2023-08-12T04:57:02;2.67;;;2.57;;
4794;SDS011;2411;47.060;15.064;2023-08-12T04:59:29;3.77;;;3.47;;
4794;SDS011;2411;47.060;15.064;2023-08-12T05:01:57;3.53;;;3.30;;
4794;SDS011;2411;47.060;15.064;2023-08-12T05:04:30;3.60;;;3.37;;
4794;SDS011;2411;47.060;15.064;2023-08-12T05:06:58;2.60;;;2.50;;
4794;SDS011;2411;47.060;15.064;2023-08-12T05:09:25;2.97;;;2.77;;
4794;SDS011;2411;47.060;15.064;2023-08-12T05:11:53;3.20;;;3.00;;
4794;SDS011;2411;47.060;15.064;2023-08-12T05:14:20;5.60;;;3.00;;
4794;SDS011;2411;47.060;15.064;2023-08-12T05:16:47;2.80;;;2.50;;
4794;SDS011;2411;47.060;15.064;2023-08-12T05:19:14;3.30;;;3.00;;
4794;SDS011;2411;47.060;15.064;2023-08-12T05:21:42;3.43;;;2.93;;
4794;SDS011;2411;47.060;15.064;2023-08-12T05:24:09;4.60;;;3.60;;
4794;SDS011;2411;47.060;15.064;2023-08-12T05:26:38;6.30;;;2.60;;
4794;SDS011;2411;47.060;15.064;2023-08-12T05:29:05;3.17;;;2.50;;
4794;SDS011;2411;47.060;15.064;2023-08-12T05:31:32;2.70;;;2.50;;
4794;SDS011;2411;47.060;15.064;2023-08-12T05:34:00;3.13;;;2.93;;
4794;SDS011;2411;47.060;15.064;2023-08-12T05:36:27;2.40;;;2.30;;
4794;SDS011;2411;47.060;15.064;2023-08-12T05:38:54;2.30;;;2.10;;
4794;SDS011;2411;47.060;15.064;2023-08-12T05:41:22;1.70;;;1.60;;
4794;SDS011;2411;47.060;15.064;2023-08-12T05:43:49;2.40;;;2.20;;
4794;SDS011;2411;47.060;15.064;2023-08-12T05:46:16;2.80;;;2.53;;
4794;SDS011;2411;47.060;15.064;2023-08-12T05:48:44;1.97;;;1.87;;
4794;SDS011;2411;47.060;15.064;2023-08-12T05:51:11;4.47;;;2.37;;
4794;SDS011;2411;47.060;15.064;2023-08-12T05:53:38;3.20;;;2.50;;
4794;SDS011;2411;47.060;15.064;2023-08-12T05:56:06;4.43;;;2.30;;
4794;SDS011;2411;47.060;15.064;2023-08-12T05:58:33;1.90;;;1.80;;
4794;SDS011;2411;47.060;15.064;2023-08-12T06:01:00;1.70;;;1.60;;
4794;SDS011;2411;47.060;15.064;2023-08-12T06:03:28;4.13;;;2.30;;
4794;SDS011;2411;47.060;15.064;2023-08-12T06:05:56;3.30;;;2.00;;
4794;SDS011;2411;47.060;15.064;2023-08-12T06:08:23;2.50;;;2.00;;
4794;SDS011;2411;47.060;15.064;2023-08-12T06:10:50;2.43;;;2.23;;
4794;SDS011;2411;47.060;15.064;2023-08-12T06:13:18;2.17;;;1.97;;
4794;SDS011;2411;47.060;15.064;2023-08-12T06:15:45;1.93;;;1.83;;
4794;SDS011;2411;47.060;15.064;2023-08-12T06:18:12;2.00;;;1.90;;
4794;SDS011;2411;47.060;15.064;2023-08-12T06:20:40;2.20;;;1.90;;
4794;SDS011;2411;47.060;15.064;2023-08-12T06:23:07;1.87;;;1.77;;
4794;SDS011;2411;47.060;15.064;2023-08-12T06:25:35;2.27;;;2.17;;
4794;SDS011;2411;47.060;15.064;2023-08-12T06:28:03;2.10;;;2.00;;
4794;SDS011;2411;47.060;15.064;2023-08-12T06:30:31;3.77;;;2.23;;
4794;SDS011;2411;47.060;15.064;2023-08-12T06:32:58;2.30;;;2.10;;
4794;SDS011;2411;47.060;15.064;2023-08-12T06:35:26;1.80;;;1.70;;
4794;SDS011;2411;47.060;15.064;2023-08-12T06:37:53;6.17;;;2.50;;
4794;SDS011;2411;47.060;15.064;2023-08-12T06:40:20;3.30;;;2.27;;
4794;SDS011;2411;47.060;15.064;2023-08-12T06:42:48;11.80;;;1.63;;
4794;SDS011;2411;47.060;15.064;2023-08-12T06:45:15;2.17;;;2.07;;
4794;SDS011;2411;47.060;15.064;2023-08-12T06:47:42;1.90;;;1.80;;
4794;SDS011;2411;47.060;15.064;2023-08-12T06:50:10;3.10;;;2.07;;
4794;SDS011;2411;47.060;15.064;2023-08-12T06:52:37;3.00;;;2.00;;
4794;SDS011;2411;47.060;15.064;2023-08-12T06:55:05;2.10;;;2.00;;
4794;SDS011;2411;47.060;15.064;2023-08-12T06:57:32;4.03;;;1.97;;
4794;SDS011;2411;47.060;15.064;2023-08-12T07:00:00;2.17;;;1.90;;
4794;SDS011;2411;47.060;15.064;2023-08-12T07:02:28;2.63;;;1.67;;
4794;SDS011;2411;47.060;15.064;2023-08-12T07:04:55;2.40;;;2.20;;
4794;SDS011;2411;47.060;15.064;2023-08-12T07:07:23;2.03;;;1.90;;
4794;SDS011;2411;47.060;15.064;2023-08-12T07:09:50;3.07;;;2.17;;
4794;SDS011;2411;47.060;15.064;2023-08-12T07:12:17;2.77;;;1.70;;
4794;SDS011;2411;47.060;15.064;2023-08-12T07:14:45;1.77;;;1.67;;
4794;SDS011;2411;47.060;15.064;2023-08-12T07:17:12;2.03;;;1.93;;
4794;SDS011;2411;47.060;15.064;2023-08-12T07:19:39;3.20;;;2.13;;
4794;SDS011;2411;47.060;15.064;2023-08-12T07:22:07;2.50;;;2.30;;
4794;SDS011;2411;47.060;15.064;2023-08-12T07:24:34;1.90;;;1.80;;
4794;SDS011;2411;47.060;15.064;2023-08-12T07:27:01;2.87;;;2.20;;
4794;SDS011;2411;47.060;15.064;2023-08-12T07:29:33;2.20;;;1.97;;
4794;SDS011;2411;47.060;15.064;2023-08-12T07:32:00;2.10;;;2.00;;
4794;SDS011;2411;47.060;15.064;2023-08-12T07:34:28;4.20;;;2.20;;
4794;SDS011;2411;47.060;15.064;2023-08-12T07:36:57;4.20;;;2.20;;
4794;SDS011;2411;47.060;15.064;2023-08-12T07:39:25;3.27;;;2.60;;
4794;SDS011;2411;47.060;15.064;2023-08-12T07:41:52;1.97;;;1.87;;
4794;SDS011;2411;47.060;15.064;2023-08-12T07:44:20;3.40;;;1.93;;
4794;SDS011;2411;47.060;15.064;2023-08-12T07:46:47;2.30;;;1.73;;
4794;SDS011;2411;47.060;15.064;2023-08-12T07:49:16;2.13;;;1.90;;
4794;SDS011;2411;47.060;15.064;2023-08-12T07:51:46;1.90;;;1.80;;
4794;SDS011;2411;47.060;15.064;2023-08-12T07:54:14;2.67;;;1.60;;
4794;SDS011;2411;47.060;15.064;2023-08-12T07:56:41;2.27;;;1.57;;
4794;SDS011;2411;47.060;15.064;2023-08-12T07:59:08;1.97;;;1.87;;
4794;SDS011;2411;47.060;15.064;2023-08-12T08:01:35;2.00;;;1.90;;
4794;SDS011;2411;47.060;15.064;2023-08-12T08:04:04;2.27;;;2.07;;
4794;SDS011;2411;47.060;15.064;2023-08-12T08:06:32;1.83;;;1.73;;
4794;SDS011;2411;47.060;15.064;2023-08-12T08:09:00;2.00;;;1.80;;
4794;SDS011;2411;47.060;15.064;2023-08-12T08:11:30;2.40;;;2.20;;
4794;SDS011;2411;47.060;15.064;2023-08-12T08:13:58;3.10;;;2.00;;
4794;SDS011;2411;47.060;15.064;2023-08-12T08:16:26;2.13;;;2.03;;
4794;SDS011;2411;47.060;15.064;2023-08-12T08:18:54;1.90;;;1.47;;
4794;SDS011;2411;47.060;15.064;2023-08-12T08:21:24;2.10;;;2.00;;
4794;SDS011;2411;47.060;15.064;2023-08-12T08:23:51;1.77;;;1.67;;
4794;SDS011;2411;47.060;15.064;2023-08-12T08:26:18;2.10;;;2.00;;
4794;SDS011;2411;47.060;15.064;2023-08-12T08:28:46;2.20;;;1.70;;
4794;SDS011;2411;47.060;15.064;2023-08-12T08:31:13;1.90;;;1.80;;
4794;SDS011;2411;47.060;15.064;2023-08-12T08:33:40;4.40;;;1.70;;
4794;SDS011;2411;47.060;15.064;2023-08-12T08:36:10;1.93;;;1.83;;
4794;SDS011;2411;47.060;15.064;2023-08-12T08:38:38;2.60;;;1.80;;
4794;SDS011;2411;47.060;15.064;2023-08-12T08:41:05;2.93;;;1.90;;
4794;SDS011;2411;47.060;15.064;2023-08-12T08:43:35;5.73;;;2.10;;
4794;SDS011;2411;47.060;15.064;2023-08-12T08:46:03;2.43;;;1.90;;
4794;SDS011;2411;47.060;15.064;2023-08-12T08:48:33;2.03;;;1.83;;
4794;SDS011;2411;47.060;15.064;2023-08-12T08:51:05;4.50;;;1.80;;
4794;SDS011;2411;47.060;15.064;2023-08-12T08:53:34;2.17;;;1.90;;
4794;SDS011;2411;47.060;15.064;2023-08-12T08:56:05;2.07;;;1.97;;
4794;SDS011;2411;47.060;15.064;2023-08-12T08:58:43;1.90;;;1.80;;
4794;SDS011;2411;47.060;15.064;2023-08-12T09:01:10;4.53;;;1.80;;
4794;SDS011;2411;47.060;15.064;2023-08-12T09:03:38;2.47;;;1.80;;
4794;SDS011;2411;47.060;15.064;2023-08-12T09:06:06;4.40;;;2.40;;
4794;SDS011;2411;47.060;15.064;2023-08-12T09:08:33;3.47;;;1.90;;
4794;SDS011;2411;47.060;15.064;2023-08-12T09:11:02;2.37;;;2.17;;
4794;SDS011;2411;47.060;15.064;2023-08-12T09:13:29;1.87;;;1.77;;
4794;SDS011;2411;47.060;15.064;2023-08-12T09:15:56;2.43;;;1.83;;
4794;SDS011;2411;47.060;15.064;2023-08-12T09:18:24;1.73;;;1.63;;
4794;SDS011;2411;47.060;15.064;2023-08-12T09:20:53;2.00;;;1.90;;
4794;SDS011;2411;47.060;15.064;2023-08-12T09:23:20;2.20;;;2.00;;
4794;SDS011;2411;47.060;15.064;2023-08-12T09:25:48;3.23;;;2.27;;
4794;SDS011;2411;47.060;15.064;2023-08-12T09:28:15;2.00;;;1.90;;
4794;SDS011;2411;47.060;15.064;2023-08-12T09:30:42;1.90;;;1.80;;
4794;SDS011;2411;47.060;15.064;2023-08-12T09:33:23;2.87;;;1.90;;
4794;SDS011;2411;47.060;15.064;2023-08-12T09:35:53;1.50;;;1.40;;
4794;SDS011;2411;47.060;15.064;2023-08-12T09:38:23;1.77;;;1.67;;
4794;SDS011;2411;47.060;15.064;2023-08-12T09:40:51;3.50;;;1.83;;
4794;SDS011;2411;47.060;15.064;2023-08-12T09:43:22;1.60;;;1.50;;
4794;SDS011;2411;47.060;15.064;2023-08-12T09:45:51;1.90;;;1.80;;
4794;SDS011;2411;47.060;15.064;2023-08-12T09:48:22;1.90;;;1.80;;
4794;SDS011;2411;47.060;15.064;2023-08-12T09:50:49;1.97;;;1.87;;
4794;SDS011;2411;47.060;15.064;2023-08-12T09:53:16;2.47;;;2.27;;
4794;SDS011;2411;47.060;15.064;2023-08-12T09:55:44;1.80;;;1.70;;
4794;SDS011;2411;47.060;15.064;2023-08-12T09:58:16;2.40;;;1.63;;
4794;SDS011;2411;47.060;15.064;2023-08-12T10:00:47;2.30;;;2.07;;
4794;SDS011;2411;47.060;15.064;2023-08-12T10:03:15;2.30;;;2.10;;
4794;SDS011;2411;47.060;15.064;2023-08-12T10:05:46;3.83;;;1.90;;
4794;SDS011;2411;47.060;15.064;2023-08-12T10:08:14;2.30;;;2.10;;
4794;SDS011;2411;47.060;15.064;2023-08-12T10:10:41;2.90;;;1.93;;
4794;SDS011;2411;47.060;15.064;2023-08-12T10:13:14;2.00;;;1.80;;
4794;SDS011;2411;47.060;15.064;2023-08-12T10:15:42;3.07;;;2.30;;
4794;SDS011;2411;47.060;15.064;2023-08-12T10:18:10;1.67;;;1.57;;
4794;SDS011;2411;47.060;15.064;2023-08-12T10:20:39;1.97;;;1.87;;
4794;SDS011;2411;47.060;15.064;2023-08-12T10:23:07;2.30;;;2.10;;
4794;SDS011;2411;47.060;15.064;2023-08-12T10:25:36;1.87;;;1.77;;
4794;SDS011;2411;47.060;15.064;2023-08-12T10:28:08;8.37;;;2.00;;
4794;SDS011;2411;47.060;15.064;2023-08-12T10:30:35;2.23;;;2.03;;
4794;SDS011;2411;47.060;15.064;2023-08-12T10:33:03;4.40;;;2.10;;
4794;SDS011;2411;47.060;15.064;2023-08-12T10:35:43;2.93;;;1.97;;
4794;SDS011;2411;47.060;15.064;2023-08-12T10:38:17;1.83;;;1.70;;
4794;SDS011;2411;47.060;15.064;2023-08-12T10:40:45;2.57;;;1.80;;
4794;SDS011;2411;47.060;15.064;2023-08-12T10:43:13;4.07;;;1.70;;
4794;SDS011;2411;47.060;15.064;2023-08-12T10:45:47;2.03;;;1.83;;
4794;SDS011;2411;47.060;15.064;2023-08-12T10:48:20;1.63;;;1.53;;
4794;SDS011;2411;47.060;15.064;2023-08-12T10:50:52;5.70;;;1.70;;
4794;SDS011;2411;47.060;15.064;2023-08-12T10:53:25;2.30;;;1.60;;
4794;SDS011;2411;47.060;15.064;2023-08-12T10:56:02;1.50;;;1.40;;
4794;SDS011;2411;47.060;15.064;2023-08-12T10:58:33;2.47;;;1.90;;
4794;SDS011;2411;47.060;15.064;2023-08-12T11:01:15;1.67;;;1.57;;
4794;SDS011;2411;47.060;15.064;2023-08-12T11:03:45;1.50;;;1.40;;
4794;SDS011;2411;47.060;15.064;2023-08-12T11:06:13;5.27;;;1.30;;
4794;SDS011;2411;47.060;15.064;2023-08-12T11:08:47;1.07;;;1.00;;
4794;SDS011;2411;47.060;15.064;2023-08-12T11:11:18;2.43;;;1.70;;
4794;SDS011;2411;47.060;15.064;2023-08-12T11:13:54;1.97;;;1.87;;
4794;SDS011;2411;47.060;15.064;2023-08-12T11:16:31;1.40;;;1.30;;
4794;SDS011;2411;47.060;15.064;2023-08-12T11:19:02;2.30;;;1.23;;
4794;SDS011;2411;47.060;15.064;2023-08-12T11:21:30;1.67;;;1.43;;
4794;SDS011;2411;47.060;15.064;2023-08-12T11:23:57;1.70;;;1.60;;
4794;SDS011;2411;47.060;15.064;2023-08-12T11:26:26;4.03;;;1.50;;
4794;SDS011;2411;47.060;15.064;2023-08-12T11:28:53;1.93;;;1.80;;
4794;SDS011;2411;47.060;15.064;2023-08-12T11:31:21;2.43;;;1.50;;
4794;SDS011;2411;47.060;15.064;2023-08-12T11:33:49;1.30;;;1.10;;
4794;SDS011;2411;47.060;15.064;2023-08-12T11:36:16;2.00;;;1.57;;
4794;SDS011;2411;47.060;15.064;2023-08-12T11:38:43;2.13;;;1.50;;
4794;SDS011;2411;47.060;15.064;2023-08-12T11:41:11;2.83;;;1.50;;
4794;SDS011;2411;47.060;15.064;2023-08-12T11:43:39;1.50;;;1.40;;
4794;SDS011;2411;47.060;15.064;2023-08-12T11:46:06;2.00;;;1.60;;
4794;SDS011;2411;47.060;15.064;2023-08-12T11:48:33;1.63;;;1.53;;
4794;SDS011;2411;47.060;15.064;2023-08-12T11:51:00;1.73;;;1.63;;
4794;SDS011;2411;47.060;15.064;2023-08-12T11:53:28;1.33;;;1.23;;
4794;SDS011;2411;47.060;15.064;2023-08-12T11:55:55;2.60;;;1.60;;
4794;SDS011;2411;47.060;15.064;2023-08-12T11:58:23;1.40;;;1.40;;
4794;SDS011;2411;47.060;15.064;2023-08-12T12:00:50;1.67;;;1.57;;
4794;SDS011;2411;47.060;15.064;2023-08-12T12:03:17;1.53;;;1.40;;
4794;SDS011;2411;47.060;15.064;2023-08-12T12:05:46;1.83;;;1.73;;
4794;SDS011;2411;47.060;15.064;2023-08-12T12:08:14;2.60;;;1.77;;
4794;SDS011;2411;47.060;15.064;2023-08-12T12:10:41;1.73;;;1.63;;
4794;SDS011;2411;47.060;15.064;2023-08-12T12:13:09;2.13;;;2.03;;
4794;SDS011;2411;47.060;15.064;2023-08-12T12:15:38;6.70;;;1.77;;
4794;SDS011;2411;47.060;15.064;2023-08-12T12:18:11;2.80;;;1.70;;
4794;SDS011;2411;47.060;15.064;2023-08-12T12:20:55;5.27;;;1.70;;
4794;SDS011;2411;47.060;15.064;2023-08-12T12:23:27;1.80;;;1.70;;
4794;SDS011;2411;47.060;15.064;2023-08-12T12:28:30;2.43;;;1.97;;
4794;SDS011;2411;47.060;15.064;2023-08-12T12:30:57;2.80;;;1.70;;
4794;SDS011;2411;47.060;15.064;2023-08-12T12:33:25;1.93;;;1.73;;
4794;SDS011;2411;47.060;15.064;2023-08-12T12:35:52;1.90;;;1.80;;
4794;SDS011;2411;47.060;15.064;2023-08-12T12:38:24;2.10;;;1.90;;
4794;SDS011;2411;47.060;15.064;2023-08-12T12:40:51;1.93;;;1.83;;
4794;SDS011;2411;47.060;15.064;2023-08-12T12:43:19;2.27;;;2.17;;
4794;SDS011;2411;47.060;15.064;2023-08-12T12:45:46;1.90;;;1.80;;
4794;SDS011;2411;47.060;15.064;2023-08-12T12:48:13;1.63;;;1.50;;
4794;SDS011;2411;47.060;15.064;2023-08-12T12:50:41;6.43;;;2.10;;
4794;SDS011;2411;47.060;15.064;2023-08-12T12:53:08;4.03;;;2.20;;
4794;SDS011;2411;47.060;15.064;2023-08-12T12:55:35;1.97;;;1.60;;
4794;SDS011;2411;47.060;15.064;2023-08-12T12:58:03;1.60;;;1.50;;
4794;SDS011;2411;47.060;15.064;2023-08-12T13:00:30;2.03;;;1.30;;
4794;SDS011;2411;47.060;15.064;2023-08-12T13:02:57;1.63;;;1.50;;
4794;SDS011;2411;47.060;15.064;2023-08-12T13:05:25;3.60;;;1.97;;
4794;SDS011;2411;47.060;15.064;2023-08-12T13:07:52;2.07;;;1.60;;
4794;SDS011;2411;47.060;15.064;2023-08-12T13:10:19;2.53;;;1.67;;
4794;SDS011;2411;47.060;15.064;2023-08-12T13:12:46;2.20;;;1.83;;
4794;SDS011;2411;47.060;15.064;2023-08-12T13:15:14;2.03;;;1.90;;
4794;SDS011;2411;47.060;15.064;2023-08-12T13:17:41;3.50;;;1.63;;
4794;SDS011;2411;47.060;15.064;2023-08-12T13:20:09;2.00;;;1.80;;
4794;SDS011;2411;47.060;15.064;2023-08-12T13:22:36;1.87;;;1.77;;
4794;SDS011;2411;47.060;15.064;2023-08-12T13:25:04;3.33;;;1.80;;
4794;SDS011;2411;47.060;15.064;2023-08-12T13:27:32;2.37;;;2.17;;
4794;SDS011;2411;47.060;15.064;2023-08-12T13:29:59;2.40;;;1.73;;
4794;SDS011;2411;47.060;15.064;2023-08-12T13:32:26;1.90;;;1.80;;
4794;SDS011;2411;47.060;15.064;2023-08-12T13:34:54;2.90;;;1.90;;
4794;SDS011;2411;47.060;15.064;2023-08-12T13:37:21;1.97;;;1.87;;
4794;SDS011;2411;47.060;15.064;2023-08-12T13:39:48;1.97;;;1.80;;
4794;SDS011;2411;47.060;15.064;2023-08-12T13:42:16;2.10;;;2.00;;
4794;SDS011;2411;47.060;15.064;2023-08-12T13:44:43;2.00;;;1.90;;
4794;SDS011;2411;47.060;15.064;2023-08-12T13:47:10;1.93;;;1.83;;
4794;SDS011;2411;47.060;15.064;2023-08-12T13:49:37;2.30;;;2.10;;
4794;SDS011;2411;47.060;15.064;2023-08-12T13:52:05;2.37;;;2.20;;
4794;SDS011;2411;47.060;15.064;2023-08-12T13:54:33;2.07;;;1.87;;
4794;SDS011;2411;47.060;15.064;2023-08-12T13:57:00;2.40;;;2.20;;
4794;SDS011;2411;47.060;15.064;2023-08-12T13:59:29;2.20;;;2.00;;
4794;SDS011;2411;47.060;15.064;2023-08-12T14:01:56;2.30;;;1.93;;
4794;SDS011;2411;47.060;15.064;2023-08-12T14:04:24;2.10;;;2.00;;
4794;SDS011;2411;47.060;15.064;2023-08-12T14:06:51;3.20;;;2.17;;
4794;SDS011;2411;47.060;15.064;2023-08-12T14:09:18;3.70;;;1.97;;
4794;SDS011;2411;47.060;15.064;2023-08-12T14:11:46;2.40;;;2.23;;
4794;SDS011;2411;47.060;15.064;2023-08-12T14:14:14;2.30;;;2.10;;
4794;SDS011;2411;47.060;15.064;2023-08-12T14:16:41;4.40;;;2.00;;
4794;SDS011;2411;47.060;15.064;2023-08-12T14:19:08;2.40;;;2.20;;
4794;SDS011;2411;47.060;15.064;2023-08-12T14:21:35;2.57;;;2.37;;
4794;SDS011;2411;47.060;15.064;2023-08-12T14:24:03;1.90;;;1.80;;
4794;SDS011;2411;47.060;15.064;2023-08-12T14:26:30;2.20;;;2.07;;
4794;SDS011;2411;47.060;15.064;2023-08-12T14:28:57;6.13;;;2.20;;
4794;SDS011;2411;47.060;15.064;2023-08-12T14:31:25;2.23;;;2.00;;
4794;SDS011;2411;47.060;15.064;2023-08-12T14:33:52;2.63;;;2.37;;
4794;SDS011;2411;47.060;15.064;2023-08-12T14:36:20;6.10;;;2.30;;
4794;SDS011;2411;47.060;15.064;2023-08-12T14:38:47;2.17;;;2.07;;
4794;SDS011;2411;47.060;15.064;2023-08-12T14:41:14;2.63;;;1.93;;
4794;SDS011;2411;47.060;15.064;2023-08-12T14:43:41;3.87;;;2.10;;
4794;SDS011;2411;47.060;15.064;2023-08-12T14:46:09;2.17;;;2.07;;
4794;SDS011;2411;47.060;15.064;2023-08-12T14:48:36;2.83;;;2.63;;
4794;SDS011;2411;47.060;15.064;2023-08-12T14:51:04;3.00;;;2.30;;
4794;SDS011;2411;47.060;15.064;2023-08-12T14:53:31;2.57;;;2.37;;
4794;SDS011;2411;47.060;15.064;2023-08-12T14:55:58;2.47;;;2.27;;
4794;SDS011;2411;47.060;15.064;2023-08-12T14:58:27;2.70;;;2.30;;
4794;SDS011;2411;47.060;15.064;2023-08-12T15:00:54;2.97;;;2.73;;
4794;SDS011;2411;47.060;15.064;2023-08-12T15:03:23;2.50;;;2.30;;
4794;SDS011;2411;47.060;15.064;2023-08-12T15:05:58;5.47;;;2.67;;
4794;SDS011;2411;47.060;15.064;2023-08-12T15:08:30;2.80;;;2.33;;
4794;SDS011;2411;47.060;15.064;2023-08-12T15:10:58;3.43;;;2.60;;
4794;SDS011;2411;47.060;15.064;2023-08-12T15:13:28;2.33;;;2.23;;
4794;SDS011;2411;47.060;15.064;2023-08-12T15:15:55;2.47;;;2.30;;